East Pleasant Plain, Iowa
Current Conditions -  °F | °C
As of 12:55 PM on Friday 24 Oct 2014 (Local Time) from KFFL Reporting Station
Broken Clouds Broken Clouds  
Wind Chill: 63°   Ceiling: 1200
Heat Index: 63°   Visibility: NA
Dew Point: 57°   Wind: 15mph
Humidity: 82%   Direction: 160°SSE
Pressure: 29.99"   Gusts: NA
Location:  41.1253°N, 91.8296°W
Report Text: KFFL 241755Z AUTO 16013KT BKN012 BKN034 17/14 A2999 RMK AO2
Loading
Personal Weather Stations






























Interactive Weather Map
Tropical Storm Tracking
New forecast layout! Learn more

10-Day Weather Forecast

Advertisements
Track Severe Weather on mobile